Time;durP1;ratioP1;P1;durP2;ratioP2;P2;SDS_P1;SDS_P2;PMS_P1;PMS_P2;Temp;Humidity;BMP_temperature;BMP_pressure;BME280_temperature;BME280_humidity;BME280_pressure;Samples;Min_cycle;Max_cycle;Signal;HPM_P1;HPM_P2
2021/09/02 00:00:43;;;;;;;;;;;;;;;;;;5010351;28;20595;-67
2021/09/02 00:03:10;;;;;;;;;;;;;;;;;;5008619;28;19936;-66
2021/09/02 00:05:36;;;;;;;;;;;;;;;;;;5011297;28;19949;-67
2021/09/02 00:08:03;;;;;;;;;;;;;;;;;;5010036;28;19934;-67
2021/09/02 00:10:30;;;;;;;;;;;;;;;;;;5009799;28;19926;-67
2021/09/02 00:12:59;;;;;;;;;;;;;;;;;;5008705;28;20214;-67
2021/09/02 00:15:26;;;;;;;;;;;;;;;;;;5010984;28;20024;-67
2021/09/02 00:17:53;;;;;;;;;;;;;;;;;;5010684;28;19936;-67
2021/09/02 00:20:20;;;;;;;;;;;;;;;;;;5011495;28;20028;-67
2021/09/02 00:22:47;;;;;;;;;;;;;;;;;;5007823;28;19933;-67
2021/09/02 00:25:14;;;;;;;;;;;;;;;;;;5011725;28;19929;-67
2021/09/02 00:27:41;;;;;;;;;;;;;;;;;;5010665;28;19929;-66
2021/09/02 00:30:08;;;;;;;;;;;;;;;;;;5010028;28;20016;-66
2021/09/02 00:32:35;;;;;;;;;;;;;;;;;;5008314;28;19932;-67
2021/09/02 00:35:02;;;;;;;;;;;;;;;;;;5011293;28;20027;-67
2021/09/02 00:37:29;;;;;;;;;;;;;;;;;;5010371;28;19940;-67
2021/09/02 00:39:56;;;;;;;;;;;;;;;;;;5011102;28;20291;-68
2021/09/02 00:42:23;;;;;;;;;;;;;;;;;;5007852;28;19929;-67
2021/09/02 00:44:50;;;;;;;;;;;;;;;;;;5009487;28;19926;-68
2021/09/02 00:47:17;;;;;;;;;;;;;;;;;;5010047;28;19949;-68
2021/09/02 00:49:44;;;;;;;;;;;;;;;;;;5011181;28;19937;-67
2021/09/02 00:52:11;;;;;;;;;;;;;;;;;;5006838;28;20428;-68
2021/09/02 00:54:37;;;;;;;;;;;;;;;;;;5007110;28;20293;-67
2021/09/02 00:57:04;;;;;;;;;;;;;;;;;;5006044;28;19933;-66
2021/09/02 00:59:31;;;;;;;;;;;;;;;;;;5010069;28;19930;-64
2021/09/02 01:01:58;;;;;;;;;;;;;;;;;;5010359;28;19926;-66
2021/09/02 01:04:25;;;;;;;;;;;;;;;;;;5009541;28;19925;-66
2021/09/02 01:06:52;;;;;;;;;;;;;;;;;;5009047;28;19926;-68
2021/09/02 01:09:19;;;;;;;;;;;;;;;;;;5010729;28;19930;-66
2021/09/02 01:11:46;;;;;;;;;;;;;;;;;;5008200;28;19984;-66
2021/09/02 01:14:13;;;;;;;;;;;;;;;;;;5005495;28;19932;-66
2021/09/02 01:16:40;;;;;;;;;;;;;;;;;;5010443;28;20364;-66
2021/09/02 01:19:07;;;;;;;;;;;;;;;;;;5009339;28;19933;-67
2021/09/02 01:21:34;;;;;;;;;;;;;;;;;;5009531;28;20181;-65
2021/09/02 01:24:01;;;;;;;;;;;;;;;;;;5008879;28;19925;-65
2021/09/02 01:26:28;;;;;;;;;;;;;;;;;;5010106;28;19929;-66
2021/09/02 01:28:55;;;;;;;;;;;;;;;;;;5008811;28;20024;-66
2021/09/02 01:31:21;;;;;;;;;;;;;;;;;;5010168;28;19932;-66
2021/09/02 01:33:48;;;;;;;;;;;;;;;;;;5008387;28;20289;-66
2021/09/02 01:36:15;;;;;;;;;;;;;;;;;;5011256;28;19972;-67
2021/09/02 01:38:42;;;;;;;;;;;;;;;;;;5010060;28;19972;-67
2021/09/02 01:41:09;;;;;;;;;;;;;;;;;;5007663;28;20297;-66
2021/09/02 01:43:36;;;;;;;;;;;;;;;;;;5006327;28;19932;-66
2021/09/02 01:46:03;;;;;;;;;;;;;;;;;;5010048;28;19925;-67
2021/09/02 01:48:30;;;;;;;;;;;;;;;;;;5009742;28;19925;-67
2021/09/02 01:50:57;;;;;;;;;;;;;;;;;;5009637;28;19930;-67
2021/09/02 01:53:24;;;;;;;;;;;;;;;;;;5003261;28;19934;-67
2021/09/02 01:55:51;;;;;;;;;;;;;;;;;;5010583;28;19933;-68
2021/09/02 01:58:18;;;;;;;;;;;;;;;;;;5013951;28;20012;-67
2021/09/02 02:00:45;;;;;;;;;;;;;;;;;;5013685;28;19929;-67
2021/09/02 02:03:12;;;;;;;;;;;;;;;;;;5009999;28;19926;-67
2021/09/02 02:05:39;;;;;;;;;;;;;;;;;;5012403;28;19925;-67
2021/09/02 02:08:06;;;;;;;;;;;;;;;;;;5008769;28;19926;-66
2021/09/02 02:10:32;;;;;;;;;;;;;;;;;;5013003;28;20012;-67
2021/09/02 02:12:59;;;;;;;;;;;;;;;;;;5005815;28;19940;-67
2021/09/02 02:15:26;;;;;;;;;;;;;;;;;;5011599;28;20374;-67
2021/09/02 02:17:53;;;;;;;;;;;;;;;;;;5012494;28;19926;-67
2021/09/02 02:20:20;;;;;;;;;;;;;;;;;;5013383;28;19932;-66
2021/09/02 02:22:47;;;;;;;;;;;;;;;;;;5010634;28;19926;-66
2021/09/02 02:25:14;;;;;;;;;;;;;;;;;;5013533;28;19935;-67
2021/09/02 02:27:41;;;;;;;;;;;;;;;;;;5011473;28;20324;-65
2021/09/02 02:30:08;;;;;;;;;;;;;;;;;;5010059;28;20061;-66
2021/09/02 02:32:35;;;;;;;;;;;;;;;;;;5011440;28;19925;-66
2021/09/02 02:35:02;;;;;;;;;;;;;;;;;;5007669;28;20286;-66
2021/09/02 02:37:29;;;;;;;;;;;;;;;;;;5013424;28;19931;-66
2021/09/02 02:39:56;;;;;;;;;;;;;;;;;;5011715;28;19939;-66
2021/09/02 02:42:23;;;;;;;;;;;;;;;;;;5011477;28;20388;-66
2021/09/02 02:44:50;;;;;;;;;;;;;;;;;;5010690;28;20016;-66
2021/09/02 02:47:17;;;;;;;;;;;;;;;;;;5011400;28;19940;-66
2021/09/02 02:49:44;;;;;;;;;;;;;;;;;;5012836;28;20197;-66
2021/09/02 02:52:11;;;;;;;;;;;;;;;;;;5012097;28;20016;-66
2021/09/02 02:54:38;;;;;;;;;;;;;;;;;;5010975;28;19925;-67
2021/09/02 02:57:05;;;;;;;;;;;;;;;;;;5011443;28;20289;-66
2021/09/02 02:59:32;;;;;;;;;;;;;;;;;;5012316;28;19977;-67
2021/09/02 03:01:59;;;;;;;;;;;;;;;;;;5010057;28;20296;-66
2021/09/02 03:04:26;;;;;;;;;;;;;;;;;;5010066;28;19926;-66
2021/09/02 03:06:53;;;;;;;;;;;;;;;;;;5006142;28;19925;-67
2021/09/02 03:09:20;;;;;;;;;;;;;;;;;;5010867;28;19937;-67
2021/09/02 03:11:47;;;;;;;;;;;;;;;;;;5012467;28;19925;-66
2021/09/02 03:14:14;;;;;;;;;;;;;;;;;;5008795;28;19932;-67
2021/09/02 03:16:41;;;;;;;;;;;;;;;;;;5012052;28;20408;-67
2021/09/02 03:19:07;;;;;;;;;;;;;;;;;;5011605;28;20385;-67
2021/09/02 03:21:34;;;;;;;;;;;;;;;;;;5012447;28;19929;-67
2021/09/02 03:24:01;;;;;;;;;;;;;;;;;;5009786;28;19932;-66
2021/09/02 03:26:28;;;;;;;;;;;;;;;;;;5009615;28;20012;-67
2021/09/02 03:28:55;;;;;;;;;;;;;;;;;;5009626;28;19952;-67
2021/09/02 03:31:22;;;;;;;;;;;;;;;;;;5011522;28;19972;-67
2021/09/02 03:33:49;;;;;;;;;;;;;;;;;;5010784;28;19933;-66
2021/09/02 03:36:16;;;;;;;;;;;;;;;;;;5007834;28;20362;-67
2021/09/02 03:38:44;;;;;;;;;;;;;;;;;;5012098;28;19929;-66
2021/09/02 03:41:11;;;;;;;;;;;;;;;;;;5009643;28;19926;-66
2021/09/02 03:43:38;;;;;;;;;;;;;;;;;;5024342;22;19987;-68
2021/09/02 03:46:05;;;;;;;;;;;;;;;;;;5011268;28;19929;-68
2021/09/02 03:48:32;;;;;;;;;;;;;;;;;;5014007;28;19940;-68
2021/09/02 03:50:59;;;;;;;;;;;;;;;;;;5013749;28;19925;-68
2021/09/02 03:53:26;;;;;;;;;;;;;;;;;;5016223;28;19936;-68
2021/09/02 03:55:53;;;;;;;;;;;;;;;;;;5009934;28;19929;-68
2021/09/02 03:58:20;;;;;;;;;;;;;;;;;;5007343;28;19932;-68
2021/09/02 04:00:47;;;;;;;;;;;;;;;;;;5010221;28;19934;-68
2021/09/02 04:03:14;;;;;;;;;;;;;;;;;;5007367;28;19925;-68
2021/09/02 04:05:41;;;;;;;;;;;;;;;;;;5011471;28;19926;-69
2021/09/02 04:08:07;;;;;;;;;;;;;;;;;;5008847;28;19929;-69
2021/09/02 04:10:34;;;;;;;;;;;;;;;;;;5010325;28;19929;-69
2021/09/02 04:13:01;;;;;;;;;;;;;;;;;;5010489;28;20333;-69
2021/09/02 04:15:28;;;;;;;;;;;;;;;;;;5012238;28;20004;-69
2021/09/02 04:17:55;;;;;;;;;;;;;;;;;;5014780;28;19933;-68
2021/09/02 04:20:22;;;;;;;;;;;;;;;;;;5011928;28;20380;-69
2021/09/02 04:22:49;;;;;;;;;;;;;;;;;;5009918;28;19926;-68
2021/09/02 04:25:16;;;;;;;;;;;;;;;;;;5014291;28;19929;-68
2021/09/02 04:27:43;;;;;;;;;;;;;;;;;;5005806;28;19929;-69
2021/09/02 04:30:13;;;;;;;;;;;;;;;;;;5012918;28;19925;-68
2021/09/02 04:32:40;;;;;;;;;;;;;;;;;;5011753;28;20540;-68
2021/09/02 04:35:07;;;;;;;;;;;;;;;;;;5009667;28;19926;-68
2021/09/02 04:37:33;;;;;;;;;;;;;;;;;;5014361;28;19926;-68
2021/09/02 04:40:00;;;;;;;;;;;;;;;;;;5013422;28;19934;-68
2021/09/02 04:42:27;;;;;;;;;;;;;;;;;;5012441;28;19935;-68
2021/09/02 04:44:54;;;;;;;;;;;;;;;;;;5006173;28;20004;-68
2021/09/02 04:47:21;;;;;;;;;;;;;;;;;;5009943;28;19979;-68
2021/09/02 04:49:48;;;;;;;;;;;;;;;;;;5011405;28;19926;-68
2021/09/02 04:52:15;;;;;;;;;;;;;;;;;;5012617;28;19932;-68
2021/09/02 04:54:42;;;;;;;;;;;;;;;;;;5011759;28;19933;-68
2021/09/02 04:57:09;;;;;;;;;;;;;;;;;;5006425;28;19926;-68
2021/09/02 04:59:36;;;;;;;;;;;;;;;;;;5009698;28;19925;-67
2021/09/02 05:02:05;;;;;;;;;;;;;;;;;;5010016;28;20298;-68
2021/09/02 05:04:32;;;;;;;;;;;;;;;;;;5014936;28;19956;-68
2021/09/02 05:06:59;;;;;;;;;;;;;;;;;;5009056;28;19925;-68
2021/09/02 05:09:26;;;;;;;;;;;;;;;;;;5013689;28;19931;-68
2021/09/02 05:11:52;;;;;;;;;;;;;;;;;;5011514;28;19929;-68
2021/09/02 05:14:19;;;;;;;;;;;;;;;;;;5008926;28;19929;-68
2021/09/02 05:16:46;;;;;;;;;;;;;;;;;;5003831;28;19932;-68
2021/09/02 05:19:13;;;;;;;;;;;;;;;;;;5003969;28;19931;-68
2021/09/02 05:21:40;;;;;;;;;;;;;;;;;;5013686;28;19925;-68
2021/09/02 05:24:07;;;;;;;;;;;;;;;;;;5015917;28;20024;-69
2021/09/02 05:26:34;;;;;;;;;;;;;;;;;;5015499;28;19926;-69
2021/09/02 05:29:01;;;;;;;;;;;;;;;;;;5010414;28;19932;-69
2021/09/02 05:31:28;;;;;;;;;;;;;;;;;;5011974;28;20293;-68
2021/09/02 05:33:55;;;;;;;;;;;;;;;;;;5012307;28;19950;-69
2021/09/02 05:36:22;;;;;;;;;;;;;;;;;;5017389;28;19929;-68
2021/09/02 05:38:49;;;;;;;;;;;;;;;;;;5015264;28;19932;-68
2021/09/02 05:41:16;;;;;;;;;;;;;;;;;;5013205;28;20356;-68
2021/09/02 05:43:43;;;;;;;;;;;;;;;;;;5017207;28;19955;-69
2021/09/02 05:46:10;;;;;;;;;;;;;;;;;;5015626;28;19925;-69
2021/09/02 05:48:37;;;;;;;;;;;;;;;;;;5020431;28;19925;-69
2021/09/02 05:51:04;;;;;;;;;;;;;;;;;;5016884;28;19931;-69
2021/09/02 05:53:31;;;;;;;;;;;;;;;;;;5015167;28;19936;-69
2021/09/02 05:55:58;;;;;;;;;;;;;;;;;;5013232;28;19929;-70
2021/09/02 05:58:25;;;;;;;;;;;;;;;;;;5014593;28;19925;-69
2021/09/02 06:00:52;;;;;;;;;;;;;;;;;;5021115;28;19931;-70
2021/09/02 06:03:19;;;;;;;;;;;;;;;;;;5013246;28;19926;-69
2021/09/02 06:05:45;;;;;;;;;;;;;;;;;;5013962;28;20032;-70
2021/09/02 06:08:12;;;;;;;;;;;;;;;;;;5011854;28;19940;-70
2021/09/02 06:10:39;;;;;;;;;;;;;;;;;;5013358;28;20293;-68
2021/09/02 06:13:06;;;;;;;;;;;;;;;;;;5011041;28;19949;-69
2021/09/02 06:15:33;;;;;;;;;;;;;;;;;;5016859;28;19988;-69
2021/09/02 06:18:00;;;;;;;;;;;;;;;;;;5009658;28;19925;-68
2021/09/02 06:20:28;;;;;;;;;;;;;;;;;;5008786;28;19930;-69
2021/09/02 06:22:55;;;;;;;;;;;;;;;;;;5010642;28;20644;-69
2021/09/02 06:25:22;;;;;;;;;;;;;;;;;;5012804;28;19933;-69
2021/09/02 06:27:49;;;;;;;;;;;;;;;;;;5010633;28;19965;-67
2021/09/02 06:30:16;;;;;;;;;;;;;;;;;;5010666;28;19929;-67
2021/09/02 06:32:43;;;;;;;;;;;;;;;;;;4998422;28;19944;-67
2021/09/02 06:35:10;;;;;;;;;;;;;;;;;;4996397;28;19929;-67
2021/09/02 06:37:37;;;;;;;;;;;;;;;;;;5005354;28;19925;-67
2021/09/02 06:40:04;;;;;;;;;;;;;;;;;;5006222;28;20411;-67
2021/09/02 06:42:31;;;;;;;;;;;;;;;;;;5004114;28;19934;-67
2021/09/02 06:44:58;;;;;;;;;;;;;;;;;;4992995;28;19926;-67
2021/09/02 06:47:25;;;;;;;;;;;;;;;;;;5008261;28;20298;-67
2021/09/02 06:49:52;;;;;;;;;;;;;;;;;;5005746;28;19936;-67
2021/09/02 06:52:19;;;;;;;;;;;;;;;;;;5007399;28;19925;-67
2021/09/02 06:54:45;;;;;;;;;;;;;;;;;;5008504;28;19925;-67
2021/09/02 06:57:12;;;;;;;;;;;;;;;;;;5002439;28;19926;-67
2021/09/02 06:59:39;;;;;;;;;;;;;;;;;;5009873;28;20374;-68
2021/09/02 07:02:06;;;;;;;;;;;;;;;;;;5010906;28;20305;-69
2021/09/02 07:04:33;;;;;;;;;;;;;;;;;;5010060;28;19953;-69
2021/09/02 07:07:00;;;;;;;;;;;;;;;;;;5016947;28;20032;-68
2021/09/02 07:09:27;;;;;;;;;;;;;;;;;;5012337;28;19926;-68
2021/09/02 07:11:54;;;;;;;;;;;;;;;;;;5008199;28;19929;-67
2021/09/02 07:14:21;;;;;;;;;;;;;;;;;;5007884;28;19932;-67
2021/09/02 07:16:48;;;;;;;;;;;;;;;;;;5006816;28;19933;-67
2021/09/02 07:19:15;;;;;;;;;;;;;;;;;;5009624;28;19925;-68
2021/09/02 07:21:42;;;;;;;;;;;;;;;;;;5007326;28;20297;-67
2021/09/02 07:24:09;;;;;;;;;;;;;;;;;;5006296;28;19925;-68
2021/09/02 07:26:37;;;;;;;;;;;;;;;;;;5007496;28;19926;-69
2021/09/02 07:29:06;;;;;;;;;;;;;;;;;;5010573;28;19933;-67
2021/09/02 07:31:33;;;;;;;;;;;;;;;;;;5007202;28;20028;-67
2021/09/02 07:34:00;;;;;;;;;;;;;;;;;;5005204;28;19925;-67
2021/09/02 07:36:27;;;;;;;;;;;;;;;;;;5008572;28;20296;-67
2021/09/02 07:38:54;;;;;;;;;;;;;;;;;;5007407;28;19929;-67
2021/09/02 07:41:21;;;;;;;;;;;;;;;;;;5006328;28;19925;-67
2021/09/02 07:43:48;;;;;;;;;;;;;;;;;;5007212;28;19932;-69
2021/09/02 07:46:14;;;;;;;;;;;;;;;;;;5003151;28;19925;-67
2021/09/02 07:48:45;;;;;;;;;;;;;;;;;;5004449;28;20411;-68
2021/09/02 07:51:12;;;;;;;;;;;;;;;;;;5006991;28;20013;-69
2021/09/02 07:53:39;;;;;;;;;;;;;;;;;;5010290;28;20088;-67
2021/09/02 07:56:06;;;;;;;;;;;;;;;;;;5004350;28;20012;-67
2021/09/02 07:58:33;;;;;;;;;;;;;;;;;;5004421;28;19937;-66
2021/09/02 08:01:00;;;;;;;;;;;;;;;;;;5007851;28;19926;-67
2021/09/02 08:03:27;;;;;;;;;;;;;;;;;;5005820;28;20334;-69
2021/09/02 08:05:54;;;;;;;;;;;;;;;;;;5008574;28;19925;-69
2021/09/02 08:08:21;;;;;;;;;;;;;;;;;;5008050;28;19925;-70
2021/09/02 08:10:48;;;;;;;;;;;;;;;;;;5008281;28;20410;-69
2021/09/02 08:13:15;;;;;;;;;;;;;;;;;;5008089;28;19953;-71
2021/09/02 08:15:42;;;;;;;;;;;;;;;;;;5008803;28;19925;-68
2021/09/02 08:18:09;;;;;;;;;;;;;;;;;;5008687;28;20302;-69
2021/09/02 08:20:35;;;;;;;;;;;;;;;;;;5004408;28;20445;-69
2021/09/02 08:23:02;;;;;;;;;;;;;;;;;;5007514;28;20088;-68
2021/09/02 08:25:29;;;;;;;;;;;;;;;;;;5006041;28;19932;-69
2021/09/02 08:27:56;;;;;;;;;;;;;;;;;;5007953;28;19933;-69
2021/09/02 08:30:23;;;;;;;;;;;;;;;;;;5004426;28;20282;-69
2021/09/02 08:32:50;;;;;;;;;;;;;;;;;;5008445;28;20384;-70
2021/09/02 08:35:18;;;;;;;;;;;;;;;;;;5008280;28;20092;-69
2021/09/02 08:37:45;;;;;;;;;;;;;;;;;;5008020;28;20321;-69
2021/09/02 08:40:12;;;;;;;;;;;;;;;;;;5005487;28;19926;-69
2021/09/02 08:42:39;;;;;;;;;;;;;;;;;;5005384;28;19929;-68
2021/09/02 08:45:06;;;;;;;;;;;;;;;;;;4999842;28;20388;-68
2021/09/02 08:47:33;;;;;;;;;;;;;;;;;;5003738;28;20426;-68
2021/09/02 08:50:00;;;;;;;;;;;;;;;;;;5006115;28;19941;-69
2021/09/02 08:52:29;;;;;;;;;;;;;;;;;;5011709;28;19925;-69
2021/09/02 08:54:56;;;;;;;;;;;;;;;;;;5006159;28;19925;-69
2021/09/02 08:57:23;;;;;;;;;;;;;;;;;;5007041;28;19929;-69
2021/09/02 08:59:50;;;;;;;;;;;;;;;;;;5006245;28;20301;-68
2021/09/02 09:02:17;;;;;;;;;;;;;;;;;;5007959;28;19937;-68
2021/09/02 09:04:44;;;;;;;;;;;;;;;;;;5008197;28;19932;-68
2021/09/02 09:07:11;;;;;;;;;;;;;;;;;;5011352;28;19926;-69
2021/09/02 09:09:38;;;;;;;;;;;;;;;;;;5012575;28;19932;-69
2021/09/02 09:12:05;;;;;;;;;;;;;;;;;;5006999;28;20278;-69
2021/09/02 09:14:33;;;;;;;;;;;;;;;;;;5010965;28;19931;-69
2021/09/02 09:17:00;;;;;;;;;;;;;;;;;;5010089;28;19926;-69
2021/09/02 09:19:27;;;;;;;;;;;;;;;;;;5007191;28;19925;-69
2021/09/02 09:21:54;;;;;;;;;;;;;;;;;;5007932;28;19929;-68
2021/09/02 09:24:21;;;;;;;;;;;;;;;;;;5008626;28;19934;-69
2021/09/02 09:26:48;;;;;;;;;;;;;;;;;;5013183;28;20348;-68
2021/09/02 09:29:15;;;;;;;;;;;;;;;;;;5008313;28;19945;-68
2021/09/02 09:31:42;;;;;;;;;;;;;;;;;;5010460;28;19930;-68
2021/09/02 09:34:09;;;;;;;;;;;;;;;;;;5006392;28;19926;-69
2021/09/02 09:36:36;;;;;;;;;;;;;;;;;;5008771;28;20297;-69
2021/09/02 09:39:03;;;;;;;;;;;;;;;;;;5008333;28;20108;-68
2021/09/02 09:41:30;;;;;;;;;;;;;;;;;;5008223;28;19936;-68
2021/09/02 09:43:57;;;;;;;;;;;;;;;;;;5012367;28;20377;-69
2021/09/02 09:46:24;;;;;;;;;;;;;;;;;;5006076;28;19942;-68
2021/09/02 09:48:50;;;;;;;;;;;;;;;;;;5010999;28;19930;-68
2021/09/02 09:51:17;;;;;;;;;;;;;;;;;;5012406;28;19925;-68
2021/09/02 09:53:44;;;;;;;;;;;;;;;;;;5010555;28;19925;-68
2021/09/02 09:56:11;;;;;;;;;;;;;;;;;;5003957;28;19925;-68
2021/09/02 09:58:38;;;;;;;;;;;;;;;;;;5011688;28;20378;-67
2021/09/02 10:01:05;;;;;;;;;;;;;;;;;;5011938;28;19932;-69
2021/09/02 10:03:32;;;;;;;;;;;;;;;;;;5010893;28;19925;-68
2021/09/02 10:05:59;;;;;;;;;;;;;;;;;;5009546;28;19929;-68
2021/09/02 10:08:26;;;;;;;;;;;;;;;;;;5007091;28;19933;-67
2021/09/02 10:10:53;;;;;;;;;;;;;;;;;;4998206;28;19933;-67
2021/09/02 10:13:20;;;;;;;;;;;;;;;;;;5011354;28;20377;-68
2021/09/02 10:15:47;;;;;;;;;;;;;;;;;;5009118;28;19931;-68
2021/09/02 10:18:14;;;;;;;;;;;;;;;;;;5005609;28;20420;-68
2021/09/02 10:20:41;;;;;;;;;;;;;;;;;;5008904;28;19925;-68
2021/09/02 10:23:08;;;;;;;;;;;;;;;;;;5006247;28;19925;-69
2021/09/02 10:25:35;;;;;;;;;;;;;;;;;;5008223;28;20020;-67
2021/09/02 10:28:02;;;;;;;;;;;;;;;;;;5006238;28;19956;-69
2021/09/02 10:30:29;;;;;;;;;;;;;;;;;;5007899;28;20366;-69
2021/09/02 10:32:56;;;;;;;;;;;;;;;;;;5007887;28;19932;-69
2021/09/02 10:35:23;;;;;;;;;;;;;;;;;;5007541;28;19925;-71
2021/09/02 10:37:50;;;;;;;;;;;;;;;;;;5013659;28;20267;-69
2021/09/02 10:40:17;;;;;;;;;;;;;;;;;;5008789;28;19929;-69
2021/09/02 10:42:44;;;;;;;;;;;;;;;;;;5011546;28;19929;-69
2021/09/02 10:45:11;;;;;;;;;;;;;;;;;;5009973;28;19936;-69
2021/09/02 10:47:37;;;;;;;;;;;;;;;;;;5006030;28;19926;-69
2021/09/02 10:50:04;;;;;;;;;;;;;;;;;;5008216;28;19932;-70
2021/09/02 10:52:31;;;;;;;;;;;;;;;;;;5012982;28;20032;-69
2021/09/02 10:54:58;;;;;;;;;;;;;;;;;;5009355;28;19932;-70
2021/09/02 10:57:25;;;;;;;;;;;;;;;;;;5010209;28;19925;-70
2021/09/02 10:59:52;;;;;;;;;;;;;;;;;;5006998;28;20405;-70
2021/09/02 11:02:19;;;;;;;;;;;;;;;;;;5005338;28;19937;-69
2021/09/02 11:04:46;;;;;;;;;;;;;;;;;;5010037;28;19933;-69
2021/09/02 11:07:13;;;;;;;;;;;;;;;;;;5007563;28;21469;-69
2021/09/02 11:09:40;;;;;;;;;;;;;;;;;;5009342;28;19929;-69
2021/09/02 11:12:08;;;;;;;;;;;;;;;;;;5010354;28;20369;-69
2021/09/02 11:14:35;;;;;;;;;;;;;;;;;;5007253;28;19925;-70
2021/09/02 11:17:02;;;;;;;;;;;;;;;;;;5012095;28;20301;-70
2021/09/02 11:19:29;;;;;;;;;;;;;;;;;;5007329;28;19933;-70
2021/09/02 11:21:56;;;;;;;;;;;;;;;;;;5006399;28;19932;-69
2021/09/02 11:24:23;;;;;;;;;;;;;;;;;;4995033;28;19932;-69
2021/09/02 11:26:50;;;;;;;;;;;;;;;;;;5006929;28;19925;-70
2021/09/02 11:29:17;;;;;;;;;;;;;;;;;;5010212;28;20399;-70
2021/09/02 11:31:44;;;;;;;;;;;;;;;;;;5004859;28;19933;-69
2021/09/02 11:34:11;;;;;;;;;;;;;;;;;;5005581;28;20027;-68
2021/09/02 11:36:38;;;;;;;;;;;;;;;;;;5006152;28;19932;-70
2021/09/02 11:39:05;;;;;;;;;;;;;;;;;;5008120;28;19929;-68
2021/09/02 11:41:31;;;;;;;;;;;;;;;;;;5005343;28;19925;-69
2021/09/02 11:43:58;;;;;;;;;;;;;;;;;;5003642;28;19941;-70
2021/09/02 11:46:25;;;;;;;;;;;;;;;;;;5006595;28;20393;-69
2021/09/02 11:48:52;;;;;;;;;;;;;;;;;;5004574;28;19933;-68
2021/09/02 11:51:19;;;;;;;;;;;;;;;;;;5007048;28;19932;-70
2021/09/02 11:53:47;;;;;;;;;;;;;;;;;;5005293;28;19932;-70
2021/09/02 11:56:16;;;;;;;;;;;;;;;;;;5007072;28;19944;-70
2021/09/02 11:58:43;;;;;;;;;;;;;;;;;;5012833;28;19925;-70
2021/09/02 12:01:10;;;;;;;;;;;;;;;;;;5008287;28;19935;-69
2021/09/02 12:03:37;;;;;;;;;;;;;;;;;;5007363;28;19929;-70
2021/09/02 12:06:04;;;;;;;;;;;;;;;;;;5006936;28;20393;-70
2021/09/02 12:08:31;;;;;;;;;;;;;;;;;;5005136;28;19932;-70
2021/09/02 12:10:58;;;;;;;;;;;;;;;;;;5003818;28;19948;-70
2021/09/02 12:13:25;;;;;;;;;;;;;;;;;;5009159;28;20385;-70
2021/09/02 12:15:52;;;;;;;;;;;;;;;;;;5004973;28;19926;-71
2021/09/02 12:18:19;;;;;;;;;;;;;;;;;;5003516;28;20023;-70
2021/09/02 12:20:46;;;;;;;;;;;;;;;;;;5004079;28;19932;-70
2021/09/02 12:23:13;;;;;;;;;;;;;;;;;;5007873;28;19930;-69
2021/09/02 12:25:40;;;;;;;;;;;;;;;;;;5002168;28;19955;-69
2021/09/02 12:28:07;;;;;;;;;;;;;;;;;;5007325;28;20378;-68
2021/09/02 12:30:34;;;;;;;;;;;;;;;;;;5004634;28;19975;-68
2021/09/02 12:33:01;;;;;;;;;;;;;;;;;;5004971;28;19936;-70
2021/09/02 12:35:28;;;;;;;;;;;;;;;;;;5007425;28;20420;-69
2021/09/02 12:37:55;;;;;;;;;;;;;;;;;;5006302;28;20298;-68
2021/09/02 12:40:22;;;;;;;;;;;;;;;;;;5006202;28;20297;-68
2021/09/02 12:42:49;;;;;;;;;;;;;;;;;;5002611;28;19930;-68
2021/09/02 12:45:19;;;;;;;;;;;;;;;;;;5003342;28;19930;-69
2021/09/02 12:47:47;;;;;;;;;;;;;;;;;;5004918;28;19929;-69
2021/09/02 12:50:14;;;;;;;;;;;;;;;;;;5001627;28;19933;-67
2021/09/02 12:52:41;;;;;;;;;;;;;;;;;;5005332;28;20012;-68
2021/09/02 12:55:08;;;;;;;;;;;;;;;;;;5008464;28;20001;-69
2021/09/02 12:57:35;;;;;;;;;;;;;;;;;;5009218;28;19940;-68
2021/09/02 13:00:02;;;;;;;;;;;;;;;;;;5002855;28;19972;-70
2021/09/02 13:02:29;;;;;;;;;;;;;;;;;;5004597;28;19976;-68
2021/09/02 13:04:56;;;;;;;;;;;;;;;;;;5008920;28;19932;-70
2021/09/02 13:07:23;;;;;;;;;;;;;;;;;;5004172;28;19932;-69
2021/09/02 13:09:50;;;;;;;;;;;;;;;;;;5006227;28;20289;-68
2021/09/02 13:12:17;;;;;;;;;;;;;;;;;;5004649;28;19932;-68
2021/09/02 13:14:44;;;;;;;;;;;;;;;;;;5003149;28;20016;-68
2021/09/02 13:17:11;;;;;;;;;;;;;;;;;;5004023;28;20305;-68
2021/09/02 13:19:38;;;;;;;;;;;;;;;;;;5008932;28;19925;-69
2021/09/02 13:22:05;;;;;;;;;;;;;;;;;;5004564;28;19936;-69
2021/09/02 13:24:32;;;;;;;;;;;;;;;;;;5004113;28;20410;-67
2021/09/02 13:26:59;;;;;;;;;;;;;;;;;;4993723;28;20819;-70
2021/09/02 13:29:26;;;;;;;;;;;;;;;;;;5005818;28;19931;-66
2021/09/02 13:31:53;;;;;;;;;;;;;;;;;;5007450;28;19930;-68
2021/09/02 13:34:20;;;;;;;;;;;;;;;;;;5006542;28;20377;-69
2021/09/02 13:36:47;;;;;;;;;;;;;;;;;;5005286;28;19926;-68
2021/09/02 13:39:14;;;;;;;;;;;;;;;;;;5004510;28;20019;-67
2021/09/02 13:41:41;;;;;;;;;;;;;;;;;;5000697;28;19926;-69
2021/09/02 13:44:08;;;;;;;;;;;;;;;;;;5006530;28;19926;-69
2021/09/02 13:46:35;;;;;;;;;;;;;;;;;;5004650;28;19961;-68
2021/09/02 13:49:02;;;;;;;;;;;;;;;;;;5005899;28;19936;-68
2021/09/02 13:51:29;;;;;;;;;;;;;;;;;;4998491;28;20016;-68
2021/09/02 13:53:56;;;;;;;;;;;;;;;;;;5007786;28;19930;-70
2021/09/02 13:56:23;;;;;;;;;;;;;;;;;;5004934;28;19929;-66
2021/09/02 13:58:50;;;;;;;;;;;;;;;;;;5009129;28;19925;-68
2021/09/02 14:01:17;;;;;;;;;;;;;;;;;;5010538;28;20374;-69
2021/09/02 14:03:44;;;;;;;;;;;;;;;;;;5007547;28;19929;-69
2021/09/02 14:06:11;;;;;;;;;;;;;;;;;;5005197;28;19933;-68
2021/09/02 14:08:38;;;;;;;;;;;;;;;;;;5012371;28;20052;-69
2021/09/02 14:11:05;;;;;;;;;;;;;;;;;;5009942;28;19936;-67
2021/09/02 14:13:33;;;;;;;;;;;;;;;;;;5000878;28;20390;-69
2021/09/02 14:16:00;;;;;;;;;;;;;;;;;;5007192;28;20386;-69
2021/09/02 14:18:27;;;;;;;;;;;;;;;;;;5010217;28;19931;-69
2021/09/02 14:20:53;;;;;;;;;;;;;;;;;;5009215;28;19925;-69
2021/09/02 14:23:20;;;;;;;;;;;;;;;;;;5010740;28;19926;-68
2021/09/02 14:25:47;;;;;;;;;;;;;;;;;;5005376;28;19926;-65
2021/09/02 14:28:14;;;;;;;;;;;;;;;;;;5009688;28;19929;-68
2021/09/02 14:30:42;;;;;;;;;;;;;;;;;;5012699;28;19932;-71
2021/09/02 14:33:09;;;;;;;;;;;;;;;;;;5008537;28;19973;-68
2021/09/02 14:35:37;;;;;;;;;;;;;;;;;;5003769;28;20279;-66
2021/09/02 14:38:04;;;;;;;;;;;;;;;;;;5011210;28;19944;-65
2021/09/02 14:40:31;;;;;;;;;;;;;;;;;;5001607;28;19946;-68
2021/09/02 14:42:58;;;;;;;;;;;;;;;;;;5002894;28;20398;-67
2021/09/02 14:45:25;;;;;;;;;;;;;;;;;;5009403;28;19929;-66
2021/09/02 14:47:52;;;;;;;;;;;;;;;;;;5014801;28;19932;-68
2021/09/02 14:50:19;;;;;;;;;;;;;;;;;;5006470;28;20362;-67
2021/09/02 14:52:46;;;;;;;;;;;;;;;;;;5011740;28;19929;-68
2021/09/02 14:55:13;;;;;;;;;;;;;;;;;;5010765;28;20070;-68
2021/09/02 14:57:40;;;;;;;;;;;;;;;;;;5013703;28;19933;-69
2021/09/02 15:00:07;;;;;;;;;;;;;;;;;;5002812;28;19925;-68
2021/09/02 15:02:34;;;;;;;;;;;;;;;;;;5003580;28;19933;-66
2021/09/02 15:05:01;;;;;;;;;;;;;;;;;;5006562;28;20271;-68
2021/09/02 15:07:28;;;;;;;;;;;;;;;;;;5009763;28;19925;-68
2021/09/02 15:09:55;;;;;;;;;;;;;;;;;;5010903;28;19929;-68
2021/09/02 15:12:22;;;;;;;;;;;;;;;;;;5008037;28;19925;-69
2021/09/02 15:14:49;;;;;;;;;;;;;;;;;;5007889;28;19933;-69
2021/09/02 15:17:16;;;;;;;;;;;;;;;;;;5008785;28;20025;-68
2021/09/02 15:19:43;;;;;;;;;;;;;;;;;;5005682;28;19940;-71
2021/09/02 15:22:10;;;;;;;;;;;;;;;;;;5009867;28;19926;-68
2021/09/02 15:24:37;;;;;;;;;;;;;;;;;;5001532;28;20187;-70
2021/09/02 15:27:04;;;;;;;;;;;;;;;;;;5008067;28;19932;-70
2021/09/02 15:29:31;;;;;;;;;;;;;;;;;;5005899;28;19930;-71
2021/09/02 15:31:58;;;;;;;;;;;;;;;;;;5005478;28;19929;-72
2021/09/02 15:34:25;;;;;;;;;;;;;;;;;;5005896;28;20012;-69
2021/09/02 15:36:52;;;;;;;;;;;;;;;;;;5005248;28;19926;-69
2021/09/02 15:39:19;;;;;;;;;;;;;;;;;;5005850;28;20294;-70
2021/09/02 15:41:46;;;;;;;;;;;;;;;;;;5008650;28;19936;-70
2021/09/02 15:44:13;;;;;;;;;;;;;;;;;;5037751;23;20013;-70
2021/09/02 15:46:40;;;;;;;;;;;;;;;;;;5025322;28;19929;-71
2021/09/02 15:49:07;;;;;;;;;;;;;;;;;;5022138;28;20027;-71
2021/09/02 15:51:34;;;;;;;;;;;;;;;;;;5023166;28;19925;-69
2021/09/02 15:54:01;;;;;;;;;;;;;;;;;;5026343;28;19929;-72
2021/09/02 15:56:28;;;;;;;;;;;;;;;;;;5027206;28;19929;-71
2021/09/02 15:58:55;;;;;;;;;;;;;;;;;;5025108;28;20016;-71
2021/09/02 16:01:22;;;;;;;;;;;;;;;;;;5022903;28;19969;-72
2021/09/02 16:03:49;;;;;;;;;;;;;;;;;;5026986;28;20020;-71
2021/09/02 16:06:16;;;;;;;;;;;;;;;;;;5028644;28;19929;-71
2021/09/02 16:08:43;;;;;;;;;;;;;;;;;;5025372;28;20433;-71
2021/09/02 16:11:10;;;;;;;;;;;;;;;;;;5026591;28;19925;-71
2021/09/02 16:13:37;;;;;;;;;;;;;;;;;;5024942;28;19955;-71
2021/09/02 16:16:04;;;;;;;;;;;;;;;;;;5026450;28;20304;-72
2021/09/02 16:18:31;;;;;;;;;;;;;;;;;;5025365;28;19940;-72
2021/09/02 16:20:58;;;;;;;;;;;;;;;;;;5022033;28;19925;-71
2021/09/02 16:23:24;;;;;;;;;;;;;;;;;;5024673;28;19925;-70
2021/09/02 16:25:51;;;;;;;;;;;;;;;;;;5025343;28;19937;-69
2021/09/02 16:28:18;;;;;;;;;;;;;;;;;;5027513;28;19936;-71
2021/09/02 16:30:45;;;;;;;;;;;;;;;;;;5026779;28;20008;-71
2021/09/02 16:33:12;;;;;;;;;;;;;;;;;;5025492;28;19972;-72
2021/09/02 16:35:39;;;;;;;;;;;;;;;;;;5026169;28;20301;-71
2021/09/02 16:38:07;;;;;;;;;;;;;;;;;;5023220;28;19932;-71
2021/09/02 16:40:34;;;;;;;;;;;;;;;;;;5021280;28;19926;-72
2021/09/02 16:43:01;;;;;;;;;;;;;;;;;;5025314;28;20465;-73